createdAt,value
2018-06-20T00:00:46.535Z,19.40
2018-06-20T00:04:50.200Z,18.47
2018-06-20T00:08:54.020Z,23.00
2018-06-20T00:12:57.697Z,18.43
2018-06-20T00:17:01.484Z,16.03
2018-06-20T00:21:05.172Z,15.40
2018-06-20T00:25:08.840Z,17.10
2018-06-20T00:29:12.492Z,18.60
2018-06-20T00:33:16.153Z,22.47
2018-06-20T00:37:19.904Z,17.77
2018-06-20T00:41:23.823Z,16.53
2018-06-20T00:45:27.484Z,18.10
2018-06-20T00:49:31.128Z,19.57
2018-06-20T00:53:34.771Z,18.30
2018-06-20T00:57:38.392Z,20.17
2018-06-20T01:01:42.071Z,19.57
2018-06-20T01:05:45.706Z,19.23
2018-06-20T01:09:49.380Z,23.40
2018-06-20T01:13:53.470Z,17.80
2018-06-20T01:17:57.115Z,19.80
2018-06-20T01:22:00.763Z,19.60
2018-06-20T01:26:04.487Z,19.40
2018-06-20T01:30:08.142Z,18.83
2018-06-20T01:34:11.804Z,21.53
2018-06-20T01:38:15.469Z,20.90
2018-06-20T01:42:19.121Z,22.20
2018-06-20T01:46:22.773Z,20.60
2018-06-20T01:50:28.572Z,25.00
2018-06-20T01:54:32.240Z,24.30
2018-06-20T01:58:35.891Z,24.20
2018-06-20T02:02:39.548Z,26.70
2018-06-20T02:06:43.180Z,25.27
2018-06-20T02:10:46.938Z,24.10
2018-06-20T02:14:50.591Z,23.23
2018-06-20T02:18:54.300Z,24.73
2018-06-20T02:22:57.956Z,27.63
2018-06-20T02:27:01.632Z,25.37
2018-06-20T02:31:05.284Z,21.10
2018-06-20T02:35:08.956Z,24.27
2018-06-20T02:39:12.613Z,22.63
2018-06-20T02:43:16.259Z,25.03
2018-06-20T02:47:24.119Z,24.23
2018-06-20T02:51:27.771Z,23.07
2018-06-20T02:55:31.432Z,24.50
2018-06-20T02:59:35.069Z,27.83
2018-06-20T03:03:38.692Z,23.83
2018-06-20T03:07:42.359Z,24.77
2018-06-20T03:11:46.080Z,23.83
2018-06-20T03:15:49.745Z,24.73
2018-06-20T03:19:53.412Z,26.13
2018-06-20T03:23:57.035Z,22.07
2018-06-20T03:28:00.691Z,22.43
2018-06-20T03:32:04.464Z,21.80
2018-06-20T03:36:08.305Z,25.63
2018-06-20T03:40:11.980Z,24.27
2018-06-20T03:44:15.586Z,27.47
2018-06-20T03:48:19.257Z,24.80
2018-06-20T03:52:23.224Z,26.87
2018-06-20T03:56:26.906Z,25.83
2018-06-20T04:00:30.567Z,24.90
2018-06-20T04:04:34.203Z,27.70
2018-06-20T04:08:37.860Z,27.70
2018-06-20T04:12:41.560Z,26.67
2018-06-20T04:16:45.224Z,28.77
2018-06-20T04:20:48.888Z,24.97
2018-06-20T04:24:52.520Z,27.13
2018-06-20T04:28:56.181Z,26.40
2018-06-20T04:32:59.835Z,23.80
2018-06-20T04:37:03.517Z,28.20
2018-06-20T04:41:07.175Z,26.97
2018-06-20T04:45:10.792Z,26.20
2018-06-20T04:49:14.453Z,28.33
2018-06-20T04:53:18.529Z,25.80
2018-06-20T04:57:22.288Z,25.87
2018-06-20T05:01:26.008Z,23.53
2018-06-20T05:05:29.672Z,27.37
2018-06-20T05:09:33.350Z,26.27
2018-06-20T05:13:37.055Z,23.03
2018-06-20T05:17:40.744Z,26.77
2018-06-20T05:21:44.405Z,26.37
2018-06-20T05:25:48.036Z,30.10
2018-06-20T05:29:51.789Z,22.73
2018-06-20T05:33:55.487Z,27.17
2018-06-20T05:37:59.167Z,25.13
2018-06-20T05:42:02.833Z,25.90
2018-06-20T05:46:06.653Z,29.60
2018-06-20T05:50:10.325Z,23.93
2018-06-20T05:54:14.000Z,27.90
2018-06-20T05:58:17.688Z,24.67
2018-06-20T06:02:21.420Z,23.97
2018-06-20T06:06:25.162Z,23.57
2018-06-20T06:10:28.840Z,21.80
2018-06-20T06:14:32.572Z,26.83
2018-06-20T06:18:36.694Z,25.30
2018-06-20T06:22:40.845Z,25.23
2018-06-20T06:26:44.527Z,23.07
2018-06-20T06:30:48.199Z,23.23
2018-06-20T06:34:51.837Z,29.60
2018-06-20T06:38:55.469Z,26.57
2018-06-20T06:42:59.131Z,27.97
2018-06-20T06:47:02.860Z,25.37
2018-06-20T06:51:06.492Z,25.30
2018-06-20T06:55:10.204Z,23.90
2018-06-20T06:59:13.887Z,22.00
2018-06-20T07:03:17.547Z,23.87
2018-06-20T07:07:21.235Z,19.33
2018-06-20T07:11:24.920Z,25.37
2018-06-20T07:15:28.630Z,25.30
2018-06-20T07:19:32.409Z,25.07
2018-06-20T07:23:36.079Z,27.40
2018-06-20T07:27:39.891Z,29.30
2018-06-20T07:31:43.519Z,32.73
2018-06-20T07:35:47.286Z,32.23
2018-06-20T07:39:50.958Z,29.50
2018-06-20T07:43:54.644Z,32.03
2018-06-20T07:47:58.426Z,29.83
2018-06-20T07:52:02.067Z,27.30
2018-06-20T07:56:05.907Z,29.97
2018-06-20T08:00:15.048Z,30.80
2018-06-20T08:04:24.130Z,28.70
2018-06-20T08:08:33.111Z,28.67
2018-06-20T08:12:42.144Z,32.17
2018-06-20T08:16:51.107Z,31.47
2018-06-20T08:25:00.190Z,26.97
2018-06-20T08:29:03.916Z,22.20
2018-06-20T08:33:07.552Z,19.80
2018-06-20T08:37:11.226Z,20.57
2018-06-20T08:41:14.888Z,21.83
2018-06-20T08:45:19.299Z,26.23
2018-06-20T08:49:22.972Z,18.57
2018-06-20T08:53:26.608Z,15.40
2018-06-20T08:57:30.391Z,16.40
2018-06-20T09:01:33.715Z,14.07
2018-06-20T09:05:42.810Z,12.30
2018-06-20T09:09:52.167Z,9.90
2018-06-20T09:14:01.075Z,11.57
2018-06-20T09:18:10.143Z,11.80
2018-06-20T09:22:14.467Z,12.83
2018-06-20T09:26:18.132Z,10.60
2018-06-20T09:30:21.794Z,12.00
2018-06-20T09:34:25.450Z,10.13
2018-06-20T09:38:29.115Z,8.70
2018-06-20T09:42:32.782Z,9.37
2018-06-20T09:46:36.437Z,7.87
2018-06-20T09:50:45.530Z,8.43
2018-06-20T09:54:50.117Z,7.43
2018-06-20T09:58:53.807Z,8.27
2018-06-20T10:04:06.563Z,8.90
2018-06-20T10:08:15.585Z,8.03
2018-06-20T10:12:24.645Z,7.13
2018-06-20T10:16:29.624Z,5.73
2018-06-20T10:20:33.240Z,4.60
2018-06-20T10:24:36.917Z,6.07
2018-06-20T10:28:40.591Z,5.03
2018-06-20T10:32:44.272Z,5.00
2018-06-20T10:36:47.977Z,5.40
2018-06-20T10:40:51.612Z,5.70
2018-06-20T10:44:59.495Z,5.90
2018-06-20T10:49:03.166Z,7.53
2018-06-20T10:53:06.832Z,5.37
2018-06-20T10:57:15.814Z,14.07
2018-06-20T11:01:24.786Z,8.03
2018-06-20T11:05:33.695Z,6.50
2018-06-20T11:09:42.855Z,6.50
2018-06-20T11:13:46.640Z,7.57
2018-06-20T11:17:50.300Z,8.67
2018-06-20T11:21:54.013Z,6.47
2018-06-20T11:25:57.639Z,5.27
2018-06-20T11:30:01.361Z,5.70
2018-06-20T11:34:05.033Z,4.87
2018-06-20T11:38:08.701Z,5.70
2018-06-20T11:42:12.369Z,6.93
2018-06-20T11:46:21.380Z,7.30
2018-06-20T11:50:25.109Z,4.80
2018-06-20T11:54:28.796Z,6.13
2018-06-20T11:58:37.700Z,5.07
2018-06-20T12:02:46.504Z,5.70
2018-06-20T12:07:57.204Z,6.47
2018-06-20T12:12:06.093Z,4.93
2018-06-20T12:20:27.906Z,11.30
2018-06-20T12:24:36.933Z,6.73
2018-06-20T12:28:45.852Z,6.30
2018-06-20T12:32:54.564Z,9.43
2018-06-20T12:37:03.446Z,6.70
2018-06-20T12:41:12.501Z,7.60
2018-06-20T12:45:18.281Z,9.93
2018-06-20T12:49:27.770Z,9.13
2018-06-20T12:53:31.413Z,11.23
2018-06-20T12:57:36.876Z,7.13
2018-06-20T13:01:40.594Z,7.73
2018-06-20T13:05:44.269Z,8.93
2018-06-20T13:09:47.954Z,7.07
2018-06-20T13:13:51.638Z,8.27
2018-06-20T13:17:55.333Z,9.17
2018-06-20T13:21:59.056Z,9.30
2018-06-20T13:26:02.919Z,9.17
2018-06-20T13:30:10.632Z,9.20
2018-06-20T13:34:19.412Z,10.07
2018-06-20T13:38:28.356Z,7.97
2018-06-20T13:42:37.594Z,7.53
2018-06-20T13:46:46.591Z,11.50
2018-06-20T13:50:50.251Z,7.73
2018-06-20T13:54:53.937Z,7.90
2018-06-20T13:58:57.654Z,8.13
2018-06-20T14:03:01.317Z,9.00
2018-06-20T14:07:05.040Z,8.07
2018-06-20T14:11:08.747Z,8.83
2018-06-20T14:15:12.417Z,9.17
2018-06-20T14:19:16.064Z,8.90
2018-06-20T14:23:19.737Z,7.67
2018-06-20T14:27:23.470Z,8.93
2018-06-20T14:31:32.416Z,8.20
2018-06-20T14:35:41.412Z,8.53
2018-06-20T14:39:50.414Z,8.83
2018-06-20T14:43:59.270Z,7.27
2018-06-20T14:52:05.004Z,8.20
2018-06-20T14:56:08.672Z,6.67
2018-06-20T15:00:12.335Z,6.10
2018-06-20T15:04:16.088Z,6.73
2018-06-20T15:08:19.798Z,5.83
2018-06-20T15:12:23.495Z,6.47
2018-06-20T15:16:32.442Z,5.70
2018-06-20T15:20:36.098Z,4.50
2018-06-20T15:24:39.766Z,6.77
2018-06-20T15:28:48.534Z,4.73
2018-06-20T15:32:57.586Z,5.03
2018-06-20T15:37:06.677Z,4.10
2018-06-20T15:41:10.321Z,3.87
2018-06-20T15:45:14.040Z,4.07
2018-06-20T15:49:17.701Z,3.77
2018-06-20T15:53:21.412Z,4.20
2018-06-20T15:57:25.097Z,4.70
2018-06-20T16:01:28.724Z,6.03
2018-06-20T16:05:32.395Z,2.93
2018-06-20T16:09:41.303Z,4.13
2018-06-20T16:13:45.016Z,5.37
2018-06-20T16:17:48.716Z,3.10
2018-06-20T16:21:57.627Z,3.53
2018-06-20T16:26:06.516Z,3.37
2018-06-20T16:30:15.372Z,4.40
2018-06-20T16:34:19.660Z,6.77
2018-06-20T16:38:23.332Z,5.07
2018-06-20T16:42:27.015Z,3.63
2018-06-20T16:46:30.650Z,2.80
2018-06-20T16:50:34.311Z,2.73
2018-06-20T16:54:37.973Z,3.93
2018-06-20T16:58:41.604Z,3.43
2018-06-20T17:02:45.539Z,7.50
2018-06-20T17:06:49.167Z,4.13
2018-06-20T17:10:52.841Z,3.27
2018-06-20T17:15:01.904Z,2.03
2018-06-20T17:19:10.987Z,3.87
2018-06-20T17:23:19.997Z,2.50
2018-06-20T17:27:23.639Z,2.70
2018-06-20T17:31:27.313Z,1.97
2018-06-20T17:35:30.972Z,3.50
2018-06-20T17:39:34.644Z,2.30
2018-06-20T17:43:38.309Z,2.23
2018-06-20T17:47:41.998Z,4.17
2018-06-20T17:51:45.668Z,2.03
2018-06-20T17:55:49.401Z,2.97
2018-06-20T17:59:53.068Z,2.80
2018-06-20T18:03:56.730Z,5.43
2018-06-20T18:08:05.666Z,4.63
2018-06-20T18:12:14.717Z,2.40
2018-06-20T18:16:23.600Z,4.27
2018-06-20T18:20:27.256Z,3.60
2018-06-20T18:24:30.923Z,3.03
2018-06-20T18:28:34.559Z,3.37
2018-06-20T18:32:38.224Z,2.40
2018-06-20T18:36:41.914Z,2.70
2018-06-20T18:40:45.554Z,3.70
2018-06-20T18:44:49.223Z,2.10
2018-06-20T18:48:52.895Z,3.87
2018-06-20T18:52:56.555Z,3.40
2018-06-20T18:57:00.246Z,2.37
2018-06-20T19:02:09.779Z,2.90
2018-06-20T19:06:18.718Z,4.50
2018-06-20T19:10:22.383Z,2.77
2018-06-20T19:14:26.164Z,2.47
2018-06-20T19:18:29.984Z,2.63
2018-06-20T19:22:33.664Z,2.73
2018-06-20T19:26:37.381Z,5.60
2018-06-20T19:30:41.191Z,2.67
2018-06-20T19:34:44.819Z,3.00
2018-06-20T19:38:48.478Z,2.37
2018-06-20T19:42:52.137Z,2.70
2018-06-20T19:46:55.786Z,2.77
2018-06-20T19:50:59.439Z,2.27
2018-06-20T19:55:03.128Z,3.27
2018-06-20T19:59:06.923Z,2.67
2018-06-20T20:03:10.559Z,3.27
2018-06-20T20:07:14.196Z,3.37
2018-06-20T20:11:17.879Z,2.87
2018-06-20T20:15:21.527Z,2.10
2018-06-20T20:19:25.181Z,2.77
2018-06-20T20:23:28.832Z,2.60
2018-06-20T20:27:32.641Z,2.73
2018-06-20T20:31:36.341Z,1.90
2018-06-20T20:35:40.000Z,2.13
2018-06-20T20:39:43.654Z,2.20
2018-06-20T20:43:47.345Z,2.30
2018-06-20T20:47:50.984Z,2.27
2018-06-20T20:51:54.649Z,6.57
2018-06-20T20:55:58.320Z,3.20
2018-06-20T21:00:01.972Z,3.90
2018-06-20T21:04:05.681Z,3.53
2018-06-20T21:08:09.337Z,2.70
2018-06-20T21:12:12.975Z,2.17
2018-06-20T21:16:16.691Z,3.50
2018-06-20T21:20:20.328Z,4.30
2018-06-20T21:24:24.003Z,4.10
2018-06-20T21:28:27.648Z,3.37
2018-06-20T21:32:31.276Z,2.50
2018-06-20T21:36:34.991Z,2.40
2018-06-20T21:40:38.643Z,3.03
2018-06-20T21:44:42.303Z,3.23
2018-06-20T21:48:45.970Z,3.37
2018-06-20T21:52:49.624Z,3.60
2018-06-20T21:56:53.324Z,3.30
2018-06-20T22:00:57.052Z,3.57
2018-06-20T22:05:00.696Z,5.30
2018-06-20T22:09:06.165Z,2.90
2018-06-20T22:13:09.811Z,3.70
2018-06-20T22:17:13.513Z,4.27
2018-06-20T22:21:17.161Z,3.37
2018-06-20T22:25:20.819Z,3.87
2018-06-20T22:29:24.489Z,3.87
2018-06-20T22:33:28.120Z,4.23
2018-06-20T22:37:31.879Z,4.93
2018-06-20T22:41:35.618Z,4.57
2018-06-20T22:45:39.267Z,4.73
2018-06-20T22:49:42.916Z,4.77
2018-06-20T22:53:46.544Z,4.13
2018-06-20T22:57:50.234Z,4.30
2018-06-20T23:01:53.876Z,5.10
2018-06-20T23:05:57.504Z,4.77
2018-06-20T23:10:01.152Z,4.57
2018-06-20T23:14:04.817Z,6.27
2018-06-20T23:18:08.463Z,7.53
2018-06-20T23:22:12.102Z,5.23
2018-06-20T23:26:15.754Z,6.67
2018-06-20T23:30:19.396Z,6.77
2018-06-20T23:34:23.053Z,6.67
2018-06-20T23:38:26.676Z,6.27
2018-06-20T23:42:30.328Z,6.27
2018-06-20T23:46:34.242Z,8.03
2018-06-20T23:50:37.879Z,8.37
2018-06-20T23:54:41.480Z,7.57
2018-06-20T23:58:45.130Z,8.07
